Time;durP1;ratioP1;P1;durP2;ratioP2;P2;SDS_P1;SDS_P2;PMS_P1;PMS_P2;Temp;Humidity;BMP_temperature;BMP_pressure;BME280_temperature;BME280_humidity;BME280_pressure;Samples;Min_cycle;Max_cycle;Signal;HPM_P1;HPM_P2
2022/08/13 00:00:33;;;;;;;2.17;1.50;;;;;;;19.43;50.55;101120.84;5048267;28;20223;-81
2022/08/13 00:03:00;;;;;;;4.67;1.63;;;;;;;19.45;50.43;101118.84;5050391;28;20230;-81
2022/08/13 00:05:27;;;;;;;4.00;1.40;;;;;;;19.47;50.33;101126.81;5047941;28;20564;-82
2022/08/13 00:07:54;;;;;;;1.50;1.40;;;;;;;19.49;50.14;101124.81;5039580;28;20248;-84
2022/08/13 00:10:23;;;;;;;1.80;1.50;;;;;;;19.50;50.30;101126.56;5046625;28;20205;-83
2022/08/13 00:12:57;;;;;;;4.40;1.90;;;;;;;19.51;50.07;101128.25;5048525;28;20250;-82
2022/08/13 00:15:29;;;;;;;5.53;2.00;;;;;;;19.49;50.07;101132.91;5055748;28;20201;-83
2022/08/13 00:17:59;;;;;;;3.13;1.90;;;;;;;19.47;50.03;101132.22;5057592;28;20216;-83
2022/08/13 00:20:29;;;;;;;1.57;1.43;;;;;;;19.46;50.03;101138.59;5051850;28;20238;-83
2022/08/13 00:22:58;;;;;;;2.93;1.70;;;;;;;19.44;50.18;101133.34;5053225;28;20240;-82
2022/08/13 00:25:25;;;;;;;3.43;1.90;;;;;;;19.38;50.13;101123.94;5044953;28;20199;-84
2022/08/13 00:27:57;;;;;;;4.10;1.80;;;;;;;19.32;50.11;101126.38;5048038;28;20207;-83
2022/08/13 00:30:28;;;;;;;2.03;1.83;;;;;;;19.24;50.41;101134.31;5045077;28;20212;-83
2022/08/13 00:32:57;;;;;;;3.33;1.73;;;;;;;19.16;50.51;101124.25;5049073;28;20323;-83
2022/08/13 00:35:23;;;;;;;1.63;1.53;;;;;;;19.11;50.63;101126.50;5051092;28;20677;-83
2022/08/13 00:37:50;;;;;;;2.77;1.90;;;;;;;19.08;51.04;101121.38;5048568;28;20217;-82
2022/08/13 00:40:17;;;;;;;2.70;1.87;;;;;;;19.03;50.94;101116.41;5051132;28;20231;-83
2022/08/13 00:42:44;;;;;;;3.40;2.00;;;;;;;19.00;51.08;101123.91;5054768;28;20310;-83
2022/08/13 00:45:11;;;;;;;2.70;1.73;;;;;;;18.92;50.94;101121.09;5056491;28;20224;-82
2022/08/13 00:50:23;;;;;;;4.47;2.20;;;;;;;18.70;51.50;101123.00;5051188;28;20206;-82
2022/08/13 00:52:50;;;;;;;2.70;1.93;;;;;;;18.66;52.01;101118.88;5051386;28;20237;-83
2022/08/13 00:55:20;;;;;;;2.00;1.70;;;;;;;18.64;52.32;101122.69;5036505;28;20234;-83
2022/08/13 00:57:48;;;;;;;3.07;1.90;;;;;;;18.62;52.51;101117.47;5038618;28;20216;-83
2022/08/13 01:00:18;;;;;;;2.23;1.80;;;;;;;18.60;52.47;101115.91;5051484;28;20254;-82
2022/08/13 01:02:47;;;;;;;2.90;1.77;;;;;;;18.59;52.25;101115.03;5051191;28;20231;-83
2022/08/13 01:05:14;;;;;;;1.87;1.57;;;;;;;18.58;52.73;101112.44;5051347;28;20653;-83
2022/08/13 01:07:43;;;;;;;2.03;1.80;;;;;;;18.51;52.69;101104.03;5050944;28;20202;-82
2022/08/13 01:10:12;;;;;;;2.43;1.70;;;;;;;18.43;52.88;101111.13;5048714;28;20248;-81
2022/08/13 01:12:39;;;;;;;1.80;1.53;;;;;;;18.37;53.20;101112.50;5049644;28;20592;-82
2022/08/13 01:15:12;;;;;;;3.47;1.60;;;;;;;18.32;53.35;101109.34;5048671;28;20960;-83
2022/08/13 01:17:40;;;;;;;2.57;1.73;;;;;;;18.27;53.31;101109.75;5049481;28;20227;-83
2022/08/13 01:20:09;;;;;;;1.77;1.50;;;;;;;18.22;53.28;101105.78;5048729;28;20213;-82
2022/08/13 01:22:38;;;;;;;2.43;1.47;;;;;;;18.18;53.79;101109.72;5049579;28;20225;-83
2022/08/13 01:25:05;;;;;;;1.40;1.30;;;;;;;18.14;53.84;101095.66;5044343;28;20211;-83
2022/08/13 01:27:33;;;;;;;2.40;1.53;;;;;;;18.13;54.09;101102.03;5043603;28;20217;-84
2022/08/13 01:30:05;;;;;;;2.10;2.00;;;;;;;18.13;54.17;101110.13;5049123;28;20216;-82
2022/08/13 01:32:32;;;;;;;2.60;1.73;;;;;;;18.12;54.54;101112.97;5045354;28;20236;-84
2022/08/13 01:35:00;;;;;;;3.10;2.00;;;;;;;18.13;54.57;101109.28;5048692;28;20206;-83
2022/08/13 01:37:27;;;;;;;2.63;1.50;;;;;;;18.11;54.68;101111.25;5051558;28;20263;-83
2022/08/13 01:39:55;;;;;;;5.80;1.73;;;;;;;18.07;54.49;101113.38;5050576;28;20208;-84
2022/08/13 01:42:23;;;;;;;2.00;1.60;;;;;;;18.00;54.56;101109.50;5050257;28;20597;-82
2022/08/13 01:44:50;;;;;;;2.83;1.63;;;;;;;17.95;54.84;101107.19;5051541;28;20216;-82
2022/08/13 01:52:46;;;;;;;10.23;1.80;;;;;;;17.82;55.09;101120.03;5039480;28;20239;-82
2022/08/13 01:55:17;;;;;;;1.80;1.70;;;;;;;17.79;55.25;101117.59;5061746;28;20352;-82
2022/08/13 01:57:44;;;;;;;2.40;1.93;;;;;;;17.77;55.46;101111.47;5058550;28;20318;-83
2022/08/13 02:00:13;;;;;;;2.73;1.70;;;;;;;17.76;55.58;101109.78;5048367;28;20209;-82
2022/08/13 02:02:42;;;;;;;2.53;1.60;;;;;;;17.75;55.43;101110.75;5049587;28;20246;-82
2022/08/13 02:05:10;;;;;;;1.80;1.50;;;;;;;17.75;55.37;101112.59;5051127;28;20669;-84
2022/08/13 02:07:37;;;;;;;2.13;1.80;;;;;;;17.70;55.32;101129.19;5052614;28;20211;-83
2022/08/13 02:10:05;;;;;;;1.90;1.53;;;;;;;17.63;55.49;101122.56;5044857;28;20221;-84
2022/08/13 02:12:34;;;;;;;1.70;1.60;;;;;;;17.56;55.97;101122.22;5045481;28;20223;-83
2022/08/13 02:15:03;;;;;;;2.80;1.80;;;;;;;17.52;56.33;101111.88;5051639;28;20214;-81
2022/08/13 02:17:33;;;;;;;2.53;1.80;;;;;;;17.50;56.28;101114.69;5053451;28;20233;-82
2022/08/13 02:19:59;;;;;;;2.13;1.73;;;;;;;17.49;56.35;101117.50;5059986;28;20214;-82
2022/08/13 02:22:26;;;;;;;2.50;1.60;;;;;;;17.48;56.51;101115.78;5048762;28;20233;-84
2022/08/13 02:24:54;;;;;;;3.33;1.80;;;;;;;17.46;56.38;101126.69;5050746;28;20277;-82
2022/08/13 02:27:22;;;;;;;4.37;1.97;;;;;;;17.45;56.75;101129.50;5052994;28;20609;-82
2022/08/13 02:29:51;;;;;;;1.83;1.73;;;;;;;17.44;56.86;101130.50;5045886;28;20226;-82
2022/08/13 02:32:19;;;;;;;2.37;2.00;;;;;;;17.41;56.50;101130.75;5053000;28;20224;-82
2022/08/13 02:34:47;;;;;;;2.77;1.60;;;;;;;17.28;56.38;101126.41;5053421;28;20549;-83
2022/08/13 02:37:15;;;;;;;3.83;2.00;;;;;;;17.19;56.81;101132.56;5045052;28;20661;-82
2022/08/13 02:39:42;;;;;;;2.20;2.00;;;;;;;17.13;57.09;101130.38;5053237;28;20213;-82
2022/08/13 02:42:09;;;;;;;2.20;2.00;;;;;;;17.07;57.01;101125.50;5054396;28;20236;-83
2022/08/13 02:44:36;;;;;;;2.23;1.90;;;;;;;17.02;57.47;101109.72;5052314;28;20202;-82
2022/08/13 02:47:05;;;;;;;2.33;2.13;;;;;;;17.00;57.79;101114.41;5052768;28;20218;-82
2022/08/13 02:49:33;;;;;;;2.00;1.80;;;;;;;16.99;58.31;101126.16;5052964;28;20716;-83
2022/08/13 02:52:01;;;;;;;1.83;1.70;;;;;;;16.95;57.94;101110.38;5052814;28;20222;-82
2022/08/13 02:54:28;;;;;;;2.50;1.80;;;;;;;16.90;58.17;101112.59;5052684;28;20627;-82
2022/08/13 02:56:55;;;;;;;3.57;2.10;;;;;;;16.85;57.97;101112.09;5048998;28;20288;-83
2022/08/13 02:59:23;;;;;;;2.20;2.00;;;;;;;16.77;57.85;101112.75;5048717;28;20670;-82
2022/08/13 03:01:51;;;;;;;1.90;1.70;;;;;;;16.68;58.24;101102.72;5047611;28;20275;-81
2022/08/13 03:04:19;;;;;;;2.57;2.10;;;;;;;16.60;58.57;101095.28;5048498;28;20206;-83
2022/08/13 03:06:45;;;;;;;2.10;2.00;;;;;;;16.56;58.96;101104.56;5057038;28;20606;-83
2022/08/13 03:09:12;;;;;;;1.80;1.70;;;;;;;16.54;59.17;101103.81;5070448;28;20262;-83
2022/08/13 03:11:38;;;;;;;2.20;2.00;;;;;;;16.53;59.37;101104.81;5052119;28;20324;-82
2022/08/13 03:14:08;;;;;;;2.17;1.97;;;;;;;16.53;59.42;101109.31;5052618;28;20675;-82
2022/08/13 03:16:35;;;;;;;2.77;1.70;;;;;;;16.53;59.83;101102.13;5050216;28;20213;-81
2022/08/13 03:19:02;;;;;;;3.37;2.20;;;;;;;16.52;59.59;101104.91;5040559;28;20206;-83
2022/08/13 03:21:33;;;;;;;2.17;2.03;;;;;;;16.44;59.12;101105.56;5051675;28;20225;-81
2022/08/13 03:24:00;;;;;;;2.33;2.10;;;;;;;16.39;59.72;101110.44;5043871;28;20203;-82
2022/08/13 03:26:27;;;;;;;2.83;2.23;;;;;;;16.31;60.08;101097.59;5045591;28;20229;-83
2022/08/13 03:28:54;;;;;;;2.57;1.70;;;;;;;16.27;60.53;101095.31;5052889;28;20209;-82
2022/08/13 03:31:22;;;;;;;2.93;2.07;;;;;;;16.28;60.73;101100.56;5045449;28;20207;-81
2022/08/13 03:33:48;;;;;;;2.20;1.83;;;;;;;16.27;60.91;101106.06;5048358;28;20240;-83
2022/08/13 03:36:15;;;;;;;3.10;2.03;;;;;;;16.26;60.87;101096.28;5054515;28;20201;-83
2022/08/13 03:38:43;;;;;;;3.33;2.20;;;;;;;16.25;60.74;101102.63;5050970;28;20209;-81
2022/08/13 03:41:12;;;;;;;2.83;2.03;;;;;;;16.25;60.99;101111.56;5051728;28;20225;-82
2022/08/13 03:43:44;;;;;;;2.70;2.20;;;;;;;16.25;60.48;101099.94;5051627;28;20679;-82
2022/08/13 03:46:12;;;;;;;2.77;2.00;;;;;;;16.25;61.26;101097.25;5040330;28;20298;-81
2022/08/13 03:48:38;;;;;;;2.23;2.03;;;;;;;16.25;61.01;101087.38;5047278;28;20590;-82
2022/08/13 03:51:06;;;;;;;2.93;2.40;;;;;;;16.27;61.17;101092.63;5051220;28;20209;-82
2022/08/13 03:53:33;;;;;;;2.10;1.90;;;;;;;16.26;61.03;101089.06;5051435;28;20244;-83
2022/08/13 03:56:02;;;;;;;4.37;2.40;;;;;;;16.26;61.17;101093.59;5055803;28;20203;-81
2022/08/13 03:58:29;;;;;;;4.10;2.27;;;;;;;16.26;61.01;101096.28;5039650;28;20206;-85
2022/08/13 04:00:57;;;;;;;3.57;2.13;;;;;;;16.24;60.79;101096.41;5053192;28;20292;-82
2022/08/13 04:03:28;;;;;;;2.10;2.00;;;;;;;16.23;60.77;101091.16;5055950;28;20322;-83
2022/08/13 04:05:58;;;;;;;2.33;1.90;;;;;;;16.21;60.66;101093.97;5066066;28;20668;-84
2022/08/13 04:08:26;;;;;;;5.87;2.00;;;;;;;16.20;60.97;101094.06;5050927;28;20236;-81
2022/08/13 04:10:53;;;;;;;2.70;2.23;;;;;;;16.21;61.01;101095.78;5045662;28;20206;-82
2022/08/13 04:13:21;;;;;;;4.20;2.20;;;;;;;16.20;61.26;101086.88;5045662;28;20234;-82
2022/08/13 04:15:49;;;;;;;4.43;2.40;;;;;;;16.19;60.87;101089.69;5042561;28;20289;-83
2022/08/13 04:18:16;;;;;;;5.10;2.37;;;;;;;16.15;60.86;101093.56;5047896;28;20591;-82
2022/08/13 04:20:42;;;;;;;2.23;2.00;;;;;;;16.11;61.16;101084.06;5051113;28;20730;-82
2022/08/13 04:23:16;;;;;;;3.97;2.70;;;;;;;16.08;61.13;101092.38;5049346;28;20256;-81
2022/08/13 04:25:44;;;;;;;4.00;2.07;;;;;;;16.05;61.47;101089.94;5048168;28;20585;-82
2022/08/13 04:28:11;;;;;;;3.70;2.67;;;;;;;16.03;61.89;101090.03;5049519;28;20206;-82
2022/08/13 04:30:41;;;;;;;5.03;2.47;;;;;;;16.01;62.42;101093.81;5057040;28;20221;-81
2022/08/13 04:33:09;;;;;;;2.90;2.47;;;;;;;16.00;62.29;101094.81;5047027;28;20739;-82
2022/08/13 04:35:36;;;;;;;3.43;2.40;;;;;;;16.00;62.55;101094.81;5051752;28;20224;-81
2022/08/13 04:38:05;;;;;;;4.10;2.20;;;;;;;15.98;62.80;101095.78;5052322;28;20207;-84
2022/08/13 04:40:32;;;;;;;3.13;2.57;;;;;;;15.98;62.67;101094.91;5064636;28;20209;-84
2022/08/13 04:42:59;;;;;;;3.77;2.20;;;;;;;15.94;62.66;101088.09;5043494;28;20234;-82
2022/08/13 04:45:27;;;;;;;3.20;2.07;;;;;;;15.92;63.03;101085.53;5051949;28;20229;-84
2022/08/13 04:47:58;;;;;;;3.50;2.60;;;;;;;15.91;63.23;101089.19;5052707;28;20207;-84
2022/08/13 04:50:25;;;;;;;2.83;2.47;;;;;;;15.92;63.54;101087.38;5050372;28;20198;-83
2022/08/13 04:52:52;;;;;;;2.93;2.40;;;;;;;15.94;63.32;101088.09;5052553;28;20223;-82
2022/08/13 04:55:19;;;;;;;4.70;2.67;;;;;;;15.98;63.53;101090.41;5052397;28;20214;-84
2022/08/13 04:57:45;;;;;;;3.27;2.80;;;;;;;16.02;63.88;101095.53;5047427;28;20212;-83
2022/08/13 05:00:14;;;;;;;4.90;3.30;;;;;;;16.02;63.91;101090.16;5051564;28;20194;-84
2022/08/13 05:02:43;;;;;;;3.20;2.40;;;;;;;16.02;64.39;101088.34;5053338;28;20298;-84
2022/08/13 05:05:12;;;;;;;2.90;2.40;;;;;;;16.03;64.27;101097.25;5053573;28;20203;-84
2022/08/13 05:07:39;;;;;;;3.63;3.07;;;;;;;16.02;64.43;101095.53;5054333;28;20664;-85
2022/08/13 05:10:06;;;;;;;5.70;3.20;;;;;;;16.02;64.79;101090.16;5054500;28;20205;-83
2022/08/13 05:12:34;;;;;;;5.03;3.60;;;;;;;16.01;64.88;101085.75;5053434;28;20228;-84
2022/08/13 05:15:01;;;;;;;4.73;3.17;;;;;;;16.02;65.02;101100.91;5048138;28;20199;-82
2022/08/13 05:17:28;;;;;;;6.37;3.63;;;;;;;16.02;64.83;101095.53;5059003;28;20200;-83
2022/08/13 05:19:55;;;;;;;3.87;2.97;;;;;;;16.03;64.92;101086.50;5063879;28;20209;-82
2022/08/13 05:22:23;;;;;;;4.27;2.83;;;;;;;16.04;64.94;101089.06;5051519;28;20234;-83
2022/08/13 05:24:50;;;;;;;3.50;2.93;;;;;;;16.07;65.27;101090.66;5041017;28;20205;-83
2022/08/13 05:27:17;;;;;;;3.13;2.80;;;;;;;16.12;65.04;101100.03;5046848;28;20210;-82
2022/08/13 05:29:44;;;;;;;4.93;3.40;;;;;;;16.17;65.35;101091.63;5046499;28;20687;-82
2022/08/13 05:32:11;;;;;;;4.13;2.90;;;;;;;16.26;65.44;101094.44;5050667;28;20225;-82
2022/08/13 05:34:38;;;;;;;3.97;2.93;;;;;;;16.35;65.59;101094.69;5050666;28;20205;-84
2022/08/13 05:37:07;;;;;;;4.17;2.97;;;;;;;16.45;65.87;101091.16;5053280;28;20209;-84
2022/08/13 05:39:34;;;;;;;3.47;3.10;;;;;;;16.53;66.28;101093.19;5047735;28;20210;-84
2022/08/13 05:42:01;;;;;;;5.83;3.07;;;;;;;16.64;66.21;101094.09;5049469;28;20233;-83
2022/08/13 05:44:28;;;;;;;3.57;3.20;;;;;;;16.74;66.80;101087.94;5051444;28;20202;-84
2022/08/13 05:46:55;;;;;;;3.30;3.00;;;;;;;16.83;67.16;101089.88;5052201;28;20210;-83
2022/08/13 05:49:23;;;;;;;3.23;2.93;;;;;;;16.94;67.20;101082.63;5052103;28;20203;-84
2022/08/13 05:51:50;;;;;;;4.97;3.20;;;;;;;17.05;67.36;101080.84;5053157;28;20227;-83
2022/08/13 05:54:18;;;;;;;3.40;2.60;;;;;;;17.16;67.52;101087.06;5052149;28;20670;-84
2022/08/13 05:56:46;;;;;;;4.13;2.60;;;;;;;17.28;67.42;101082.47;5053213;28;20575;-82
2022/08/13 06:04:38;;;;;;;5.03;3.17;;;;;;;17.63;66.53;101095.63;5047613;28;20215;-84
2022/08/13 06:07:06;;;;;;;3.00;2.80;;;;;;;17.76;66.23;101092.75;5052519;28;20370;-85
2022/08/13 06:09:32;;;;;;;5.10;3.23;;;;;;;17.85;65.83;101092.84;5045653;28;20201;-84
2022/08/13 06:12:00;;;;;;;3.80;2.97;;;;;;;17.95;65.17;101091.03;5032874;28;20288;-83
2022/08/13 06:14:31;;;;;;;4.47;2.60;;;;;;;18.07;64.84;101097.22;5063466;28;20290;-85
2022/08/13 06:16:58;;;;;;;2.53;2.30;;;;;;;18.20;64.40;101087.03;5054264;28;20202;-85
2022/08/13 06:19:26;;;;;;;5.00;2.50;;;;;;;18.36;63.69;101094.63;5053035;28;20229;-84
2022/08/13 06:21:52;;;;;;;3.70;2.50;;;;;;;18.51;63.19;101090.56;5052760;28;20240;-85
2022/08/13 06:24:19;;;;;;;6.43;2.70;;;;;;;18.65;61.61;101095.59;5052496;28;20281;-83
2022/08/13 06:26:50;;;;;;;3.40;2.30;;;;;;;18.77;59.65;101093.66;5053034;28;20205;-85
2022/08/13 06:29:19;;;;;;;4.70;2.40;;;;;;;18.89;58.65;101087.13;5050094;28;20793;-84
2022/08/13 06:31:47;;;;;;;7.43;2.50;;;;;;;19.03;57.84;101094.81;5046552;28;20702;-83
2022/08/13 06:34:14;;;;;;;3.63;2.13;;;;;;;19.19;57.46;101096.94;5040219;28;20293;-84
2022/08/13 06:36:41;;;;;;;4.23;2.50;;;;;;;19.33;56.28;101096.53;5053298;28;20287;-84
2022/08/13 06:39:07;;;;;;;2.33;2.13;;;;;;;19.47;55.89;101097.09;5052628;28;20220;-84
2022/08/13 06:41:34;;;;;;;5.00;2.50;;;;;;;19.61;55.70;101105.63;5046973;28;20245;-84
2022/08/13 06:44:02;;;;;;;2.77;2.50;;;;;;;19.75;54.86;101104.31;5067895;28;20868;-84
2022/08/13 06:46:31;;;;;;;2.40;2.20;;;;;;;19.90;54.74;101094.75;5063344;28;20547;-83
2022/08/13 06:48:59;;;;;;;5.27;2.57;;;;;;;20.06;54.39;101091.47;5060246;28;20210;-84
2022/08/13 06:51:26;;;;;;;2.43;2.23;;;;;;;20.23;54.01;101087.13;5048569;28;20212;-85
2022/08/13 06:53:54;;;;;;;3.23;2.30;;;;;;;20.41;53.72;101090.78;5058910;28;20207;-83
2022/08/13 06:56:22;;;;;;;2.50;2.30;;;;;;;20.58;53.08;101089.97;5055631;28;20648;-83
2022/08/13 06:58:51;;;;;;;2.93;2.10;;;;;;;20.74;52.53;101103.69;5047536;28;20956;-85
2022/08/13 07:01:20;;;;;;;3.03;2.33;;;;;;;20.91;52.22;101088.47;5051435;28;20216;-84
2022/08/13 07:03:48;;;;;;;2.50;2.30;;;;;;;21.09;51.85;101096.59;5052829;28;20225;-84
2022/08/13 07:06:17;;;;;;;2.63;2.30;;;;;;;21.22;50.77;101088.97;5045936;28;20590;-83
2022/08/13 07:08:44;;;;;;;2.40;2.07;;;;;;;21.36;50.28;101093.84;5056831;28;20204;-84
2022/08/13 07:11:23;;;;;;;2.30;2.08;;;;;;;21.50;50.26;101100.53;5054605;28;20304;-85
2022/08/13 07:13:52;;;;;;;3.22;2.60;;;;;;;21.67;50.06;101096.13;5056259;28;20210;-85
2022/08/13 07:16:21;;;;;;;3.03;2.35;;;;;;;21.82;49.65;101094.56;5051715;28;20213;-85
2022/08/13 07:18:50;;;;;;;2.28;1.95;;;;;;;21.96;49.33;101093.97;5040486;28;20711;-86
2022/08/13 07:21:19;;;;;;;3.17;2.47;;;;;;;22.10;49.14;101093.38;5063960;28;20557;-84
2022/08/13 07:23:47;;;;;;;2.72;2.47;;;;;;;22.25;48.82;101101.78;5068864;28;20275;-84
2022/08/13 07:26:16;;;;;;;2.63;2.20;;;;;;;22.39;48.42;101109.28;5056276;28;20205;-84
2022/08/13 07:28:44;;;;;;;3.38;2.83;;;;;;;22.53;48.36;101099.72;5054478;28;20218;-84
2022/08/13 07:31:13;;;;;;;4.70;2.22;;;;;;;22.66;48.38;101104.66;5054588;28;20245;-86
2022/08/13 07:33:43;;;;;;;4.25;2.40;;;;;;;22.79;47.95;101110.50;5053718;28;20193;-84
2022/08/13 07:36:13;;;;;;;3.72;2.25;;;;;;;22.95;47.84;101102.41;5053997;28;20201;-84
2022/08/13 07:38:40;;;;;;;4.10;2.55;;;;;;;23.09;47.25;101103.63;5054383;28;20201;-83
2022/08/13 07:41:07;;;;;;;4.45;2.10;;;;;;;23.24;46.89;101101.97;5062185;28;20197;-84
2022/08/13 07:43:39;;;;;;;3.13;2.08;;;;;;;23.38;46.31;101097.72;5058092;28;20241;-84
2022/08/13 07:46:10;;;;;;;4.63;2.22;;;;;;;23.51;45.88;101093.50;5052709;28;20214;-83
2022/08/13 07:48:38;;;;;;;5.25;2.60;;;;;;;23.66;45.78;101096.38;5054096;28;20197;-86
2022/08/13 07:51:07;;;;;;;7.70;2.67;;;;;;;23.83;45.25;101091.75;5057590;28;20349;-85
2022/08/13 07:53:35;;;;;;;3.33;2.50;;;;;;;23.97;44.50;101087.50;5057612;28;20213;-84
2022/08/13 07:56:06;;;;;;;5.82;2.92;;;;;;;24.10;44.24;101093.25;5055698;28;20707;-85
2022/08/13 07:58:34;;;;;;;3.22;2.67;;;;;;;24.27;44.23;101088.63;5053337;28;20758;-84
2022/08/13 08:01:01;;;;;;;6.80;2.92;;;;;;;24.40;43.91;101097.09;5061528;28;20287;-83
2022/08/13 08:03:32;;;;;;;3.35;2.90;;;;;;;24.57;43.49;101094.13;5057897;28;20236;-84
2022/08/13 08:06:00;;;;;;;5.68;2.90;;;;;;;24.72;43.52;101090.66;5052137;28;20200;-83
2022/08/13 08:08:27;;;;;;;5.85;2.88;;;;;;;24.86;42.97;101100.78;5052289;28;20209;-84
2022/08/13 08:10:55;;;;;;;4.03;2.70;;;;;;;25.02;42.53;101094.44;5046876;28;20216;-82
2022/08/13 08:13:21;;;;;;;4.47;2.90;;;;;;;25.15;42.34;101094.66;5043302;28;20235;-84
2022/08/13 08:15:48;;;;;;;5.18;3.08;;;;;;;25.29;41.83;101096.59;5050988;28;20300;-85
2022/08/13 08:18:15;;;;;;;4.15;3.20;;;;;;;25.44;41.80;101094.78;5058646;28;20557;-83
2022/08/13 08:20:42;;;;;;;5.10;3.60;;;;;;;25.60;41.57;101091.09;5052879;28;20209;-85
2022/08/13 08:23:10;;;;;;;3.72;3.30;;;;;;;25.75;41.10;101096.59;5051701;28;20233;-83
2022/08/13 08:25:36;;;;;;;6.13;3.28;;;;;;;25.89;40.90;101095.78;5053387;28;20224;-84
2022/08/13 08:28:05;;;;;;;5.68;3.50;;;;;;;26.05;40.85;101094.75;5053092;28;20213;-84
2022/08/13 08:30:31;;;;;;;9.23;3.90;;;;;;;26.21;40.66;101086.38;5051129;28;20201;-85
2022/08/13 08:32:58;;;;;;;9.80;4.88;;;;;;;26.38;40.36;101092.53;5050346;28;20248;-84
2022/08/13 08:35:24;;;;;;;6.82;4.25;;;;;;;26.49;40.25;101097.53;5051408;28;20600;-82
2022/08/13 08:43:32;;;;;;;9.45;5.38;;;;;;;26.96;39.57;101106.13;5056167;28;20240;-84
2022/08/13 08:46:00;;;;;;;9.30;4.97;;;;;;;27.10;39.34;101101.63;5051467;28;20205;-84
2022/08/13 08:48:28;;;;;;;6.57;4.75;;;;;;;27.19;39.60;101103.22;5049890;28;20596;-83
2022/08/13 08:50:55;;;;;;;8.65;5.00;;;;;;;27.35;39.24;101098.53;5051047;28;20209;-83
2022/08/13 08:53:27;;;;;;;7.75;4.80;;;;;;;27.48;38.82;101083.09;5047530;28;20262;-84
2022/08/13 08:55:54;;;;;;;7.75;4.45;;;;;;;27.60;38.56;101086.16;5049835;28;20209;-85
2022/08/13 08:58:22;;;;;;;6.85;3.97;;;;;;;27.70;38.04;101085.81;5049782;28;20221;-86
2022/08/13 09:00:56;;;;;;;5.85;3.53;;;;;;;27.81;37.87;101075.16;5048479;28;20298;-86
2022/08/13 09:03:27;;;;;;;7.82;3.95;;;;;;;27.95;37.85;101073.38;5052559;28;20237;-85
2022/08/13 09:05:54;;;;;;;5.13;3.10;;;;;;;28.10;37.73;101076.00;5043411;28;20947;-85
2022/08/13 09:08:25;;;;;;;5.47;3.65;;;;;;;28.25;37.48;101076.75;5052204;28;20197;-84
2022/08/13 09:10:53;;;;;;;3.47;2.72;;;;;;;28.43;37.28;101065.25;5055549;28;20217;-84
2022/08/13 09:13:22;;;;;;;4.45;2.65;;;;;;;28.54;36.95;101067.41;5054666;28;20236;-85
2022/08/13 09:15:51;;;;;;;3.65;2.75;;;;;;;28.66;37.17;101058.38;5051996;28;20210;-86
2022/08/13 09:18:19;;;;;;;3.15;2.85;;;;;;;28.80;36.89;101067.56;5060796;28;20208;-82
2022/08/13 09:20:46;;;;;;;3.90;2.88;;;;;;;28.87;36.43;101059.31;5051230;28;20308;-84
2022/08/13 09:23:15;;;;;;;4.43;2.90;;;;;;;28.97;36.39;101059.78;5053528;28;20750;-82
2022/08/13 09:25:51;;;;;;;4.78;2.85;;;;;;;29.03;36.61;101059.78;5056212;28;20216;-83
2022/08/13 09:28:23;;;;;;;3.22;2.70;;;;;;;29.12;36.17;101054.97;5047677;28;20219;-85
2022/08/13 09:30:52;;;;;;;4.60;3.50;;;;;;;29.20;36.72;101051.19;5047555;28;20213;-84
2022/08/13 09:33:20;;;;;;;4.93;3.25;;;;;;;29.26;36.06;101047.59;5047742;28;20309;-85
2022/08/13 09:35:48;;;;;;;3.97;3.38;;;;;;;29.35;36.20;101051.81;5048420;28;20215;-85
2022/08/13 09:38:15;;;;;;;3.40;3.10;;;;;;;29.45;35.90;101049.53;5050507;28;20692;-86
2022/08/13 09:40:49;;;;;;;3.42;3.08;;;;;;;29.54;36.39;101041.94;5049861;28;20205;-85
2022/08/13 09:43:19;;;;;;;6.07;3.55;;;;;;;29.62;36.12;101053.53;5047965;28;20701;-85
2022/08/13 09:45:46;;;;;;;3.55;3.20;;;;;;;29.70;36.13;101049.75;5051468;28;20960;-86
2022/08/13 09:48:15;;;;;;;3.58;3.28;;;;;;;29.79;36.12;101050.34;5050996;28;20652;-84
2022/08/13 09:50:42;;;;;;;3.92;3.42;;;;;;;29.86;35.74;101046.53;5052031;28;20577;-86
2022/08/13 09:53:10;;;;;;;3.08;2.88;;;;;;;29.89;35.89;101045.28;5044622;28;20221;-84
2022/08/13 09:55:37;;;;;;;3.83;3.50;;;;;;;29.93;35.24;101027.28;5051698;28;20271;-84
2022/08/13 09:58:04;;;;;;;3.20;2.92;;;;;;;29.99;35.61;101030.06;5050102;28;20216;-83
2022/08/13 10:00:33;;;;;;;5.35;3.40;;;;;;;30.08;35.62;101024.34;5050214;28;20645;-83
2022/08/13 10:03:01;;;;;;;5.28;3.78;;;;;;;30.14;35.40;101032.56;5048901;28;20230;-85
2022/08/13 10:05:34;;;;;;;4.10;3.70;;;;;;;30.18;35.63;101036.56;5047613;28;20208;-85
2022/08/13 10:08:02;;;;;;;6.00;4.10;;;;;;;30.21;35.79;101032.53;5047095;28;20213;-85
2022/08/13 10:10:29;;;;;;;3.85;3.40;;;;;;;30.18;35.10;101025.56;5048734;28;20598;-84
2022/08/13 10:12:57;;;;;;;3.92;3.65;;;;;;;30.17;35.31;101023.88;5045871;28;20742;-85
2022/08/13 10:15:23;;;;;;;4.50;4.20;;;;;;;30.21;35.79;101029.78;5049496;28;20648;-84
2022/08/13 10:17:52;;;;;;;4.10;3.70;;;;;;;30.24;36.09;101027.47;5050367;28;20289;-84
2022/08/13 10:20:24;;;;;;;4.53;4.10;;;;;;;30.27;35.68;101028.94;5051359;28;20209;-85
2022/08/13 10:22:53;;;;;;;4.90;4.47;;;;;;;30.23;35.89;101025.78;5060721;28;20592;-85
2022/08/13 10:25:19;;;;;;;5.13;4.68;;;;;;;30.16;35.78;101024.94;5054400;28;20205;-85
2022/08/13 10:27:49;;;;;;;4.63;4.22;;;;;;;30.10;35.67;101014.81;5046301;28;20207;-86
2022/08/13 10:30:17;;;;;;;4.25;3.95;;;;;;;30.04;36.03;101007.47;5051329;28;20552;-84
2022/08/13 10:32:46;;;;;;;4.93;4.28;;;;;;;30.03;35.68;101017.59;5053425;28;20290;-82
2022/08/13 10:35:15;;;;;;;4.53;4.10;;;;;;;30.08;36.38;101005.13;5056407;28;20202;-84
2022/08/13 10:37:46;;;;;;;4.78;4.10;;;;;;;30.14;35.67;101004.25;5057748;28;20210;-84
2022/08/13 10:40:15;;;;;;;5.47;4.45;;;;;;;30.17;35.98;101009.31;5048010;28;20202;-84
2022/08/13 10:42:44;;;;;;;4.35;4.05;;;;;;;30.19;35.56;100997.03;5057351;28;20699;-84
2022/08/13 10:45:12;;;;;;;4.65;4.25;;;;;;;30.25;35.53;100998.09;5054894;28;20205;-85
2022/08/13 10:47:45;;;;;;;4.85;4.00;;;;;;;30.31;35.58;100999.94;5053825;28;20265;-83
2022/08/13 10:50:13;;;;;;;4.82;4.03;;;;;;;30.36;34.94;101000.13;5056599;28;20612;-84
2022/08/13 10:52:39;;;;;;;4.60;4.15;;;;;;;30.42;35.30;100993.78;5052142;28;20218;-84
2022/08/13 10:55:08;;;;;;;4.05;3.75;;;;;;;30.47;34.54;100987.59;5051797;28;20205;-85
2022/08/13 10:57:37;;;;;;;4.00;3.70;;;;;;;30.52;34.33;100988.63;5054877;28;20340;-86
2022/08/13 11:00:05;;;;;;;5.43;4.10;;;;;;;30.49;33.92;100985.47;5059239;28;20275;-85
2022/08/13 11:02:31;;;;;;;6.43;4.25;;;;;;;30.51;34.27;100991.59;5057920;28;20225;-83
2022/08/13 11:05:03;;;;;;;4.30;3.90;;;;;;;30.53;34.29;100984.00;5061625;28;20221;-84
2022/08/13 11:07:31;;;;;;;3.78;3.38;;;;;;;30.60;34.70;100976.59;5054220;28;20206;-86
2022/08/13 11:09:57;;;;;;;4.15;3.83;;;;;;;30.71;34.28;100978.63;5060509;28;20205;-85
2022/08/13 11:12:24;;;;;;;4.00;3.80;;;;;;;30.75;33.91;100970.78;5055872;28;20232;-84
2022/08/13 11:14:53;;;;;;;4.95;3.85;;;;;;;30.76;33.51;100970.56;5056901;28;20201;-84
2022/08/13 11:17:19;;;;;;;4.90;3.65;;;;;;;30.84;33.61;100973.03;5057404;28;20212;-84
2022/08/13 11:19:48;;;;;;;4.25;3.95;;;;;;;30.92;33.51;100967.28;5057857;28;20213;-84
2022/08/13 11:22:15;;;;;;;4.45;3.65;;;;;;;31.02;33.12;100964.84;5055662;28;20263;-84
2022/08/13 11:24:42;;;;;;;4.38;3.95;;;;;;;31.10;32.71;100957.41;5059260;28;20237;-85
2022/08/13 11:27:08;;;;;;;3.80;3.40;;;;;;;31.16;32.34;100965.66;5053376;28;20198;-85
2022/08/13 11:29:35;;;;;;;4.07;3.65;;;;;;;31.24;32.64;100950.75;5053136;28;20194;-83
2022/08/13 11:32:03;;;;;;;4.50;4.10;;;;;;;31.29;32.68;100948.16;5053255;28;20678;-84
2022/08/13 11:34:30;;;;;;;4.30;3.97;;;;;;;31.36;33.32;100943.41;5052226;28;20208;-83
2022/08/13 11:36:56;;;;;;;4.60;4.03;;;;;;;31.44;33.03;100954.16;5057983;28;20802;-84
2022/08/13 11:39:23;;;;;;;5.15;4.10;;;;;;;31.48;32.98;100935.28;5059337;28;20205;-84
2022/08/13 11:41:50;;;;;;;5.65;4.20;;;;;;;31.47;33.02;100953.72;5056890;28;20662;-83
2022/08/13 11:44:17;;;;;;;4.72;4.32;;;;;;;31.46;32.37;100943.75;5054243;28;20308;-83
2022/08/13 11:46:44;;;;;;;4.95;4.57;;;;;;;31.42;32.29;100953.53;5047821;28;20236;-85